createdAt,value
2023-05-14T00:00:59.277Z,98548.65
2023-05-14T00:03:30.369Z,98547.70
2023-05-14T00:05:58.476Z,98549.95
2023-05-14T00:08:27.400Z,98554.80
2023-05-14T00:10:55.855Z,98555.38
2023-05-14T00:13:24.197Z,98554.91
2023-05-14T00:15:52.171Z,98556.35
2023-05-14T00:18:20.386Z,98559.09
2023-05-14T00:20:48.277Z,98558.19
2023-05-14T00:23:16.327Z,98555.86
2023-05-14T00:25:44.194Z,98554.41
2023-05-14T00:28:12.192Z,98556.29
2023-05-14T00:30:40.412Z,98556.61
2023-05-14T00:33:08.679Z,98553.02
2023-05-14T00:35:37.113Z,98544.50
2023-05-14T00:38:05.555Z,98541.40
2023-05-14T00:40:34.261Z,98535.90
2023-05-14T00:43:02.312Z,98530.59
2023-05-14T00:45:30.329Z,98532.33
2023-05-14T00:47:58.260Z,98531.79
2023-05-14T00:50:26.611Z,98530.42
2023-05-14T00:52:54.838Z,98533.34
2023-05-14T00:55:22.989Z,98533.73
2023-05-14T00:57:50.929Z,98530.31
2023-05-14T01:00:19.437Z,98533.55
2023-05-14T01:02:47.457Z,98533.92
2023-05-14T01:05:15.368Z,98533.69
2023-05-14T01:08:34.897Z,98529.52
2023-05-14T01:11:25.086Z,98524.66
2023-05-14T01:13:53.374Z,98516.71
2023-05-14T01:16:21.458Z,98511.46
2023-05-14T01:18:49.623Z,98510.56
2023-05-14T01:21:36.057Z,98511.68
2023-05-14T01:24:04.534Z,98511.11
2023-05-14T01:26:33.252Z,98511.27
2023-05-14T01:29:10.986Z,98509.58
2023-05-14T01:31:39.357Z,98512.73
2023-05-14T01:34:08.217Z,98511.13
2023-05-14T01:36:36.223Z,98503.86
2023-05-14T01:39:04.236Z,98506.81
2023-05-14T01:41:32.223Z,98499.67
2023-05-14T01:44:00.182Z,98498.45
2023-05-14T01:46:32.025Z,98493.17
2023-05-14T01:49:00.620Z,98495.48
2023-05-14T01:51:28.742Z,98492.60
2023-05-14T01:53:56.781Z,98495.27
2023-05-14T01:56:25.944Z,98494.04
2023-05-14T01:58:55.689Z,98489.60
2023-05-14T02:01:26.104Z,98484.77
2023-05-14T02:03:54.225Z,98484.79
2023-05-14T02:06:23.130Z,98490.73
2023-05-14T02:08:51.025Z,98490.38
2023-05-14T02:11:18.958Z,98493.46
2023-05-14T02:13:47.263Z,98489.81
2023-05-14T02:16:15.411Z,98496.01
2023-05-14T02:18:43.521Z,98500.73
2023-05-14T02:21:11.772Z,98498.67
2023-05-14T02:23:41.863Z,98501.20
2023-05-14T02:26:10.792Z,98496.73
2023-05-14T02:28:38.818Z,98504.05
2023-05-14T02:31:07.481Z,98504.29
2023-05-14T02:33:35.647Z,98505.39
2023-05-14T02:36:03.800Z,98505.73
2023-05-14T02:38:31.740Z,98503.95
2023-05-14T02:40:59.638Z,98500.05
2023-05-14T02:43:27.554Z,98501.11
2023-05-14T02:45:55.573Z,98497.05
2023-05-14T02:48:23.846Z,98495.70
2023-05-14T02:50:52.298Z,98499.46
2023-05-14T02:53:20.408Z,98498.81
2023-05-14T02:55:48.470Z,98500.65
2023-05-14T02:58:16.329Z,98499.70
2023-05-14T03:00:44.329Z,98501.32
2023-05-14T03:03:12.757Z,98499.84
2023-05-14T03:05:41.420Z,98505.08
2023-05-14T03:08:09.424Z,98508.38
2023-05-14T03:10:37.500Z,98509.81
2023-05-14T03:13:05.520Z,98512.64
2023-05-14T03:15:33.410Z,98511.88
2023-05-14T03:18:01.366Z,98512.41
2023-05-14T03:20:29.258Z,98519.17
2023-05-14T03:22:57.164Z,98518.64
2023-05-14T03:25:25.844Z,98518.38
2023-05-14T03:27:53.835Z,98517.84
2023-05-14T03:30:22.267Z,98514.27
2023-05-14T03:32:50.594Z,98515.71
2023-05-14T03:35:19.014Z,98516.38
2023-05-14T03:37:47.012Z,98517.12
2023-05-14T03:40:15.302Z,98524.43
2023-05-14T03:42:44.391Z,98526.13
2023-05-14T03:45:13.000Z,98529.66
2023-05-14T03:47:41.524Z,98530.02
2023-05-14T03:50:09.673Z,98536.77
2023-05-14T03:52:37.625Z,98543.23
2023-05-14T03:55:06.449Z,98545.10
2023-05-14T03:57:34.431Z,98545.59
2023-05-14T04:00:04.760Z,98543.48
2023-05-14T04:02:44.760Z,98544.46
2023-05-14T04:05:12.897Z,98540.60
2023-05-14T04:07:40.902Z,98542.65
2023-05-14T04:10:09.339Z,98543.52
2023-05-14T04:12:37.424Z,98543.02
2023-05-14T04:15:06.662Z,98545.37
2023-05-14T04:17:35.077Z,98549.36
2023-05-14T04:20:03.457Z,98546.56
2023-05-14T04:22:32.070Z,98549.02
2023-05-14T04:25:00.072Z,98550.33
2023-05-14T04:27:28.538Z,98552.52
2023-05-14T04:29:56.491Z,98551.62
2023-05-14T04:32:24.834Z,98548.30
2023-05-14T04:34:52.844Z,98550.97
2023-05-14T04:37:21.100Z,98549.61
2023-05-14T04:39:49.489Z,98547.14
2023-05-14T04:42:17.356Z,98545.08
2023-05-14T04:44:45.522Z,98547.00
2023-05-14T04:47:13.469Z,98550.41
2023-05-14T04:49:41.474Z,98553.75
2023-05-14T04:52:09.473Z,98551.80
2023-05-14T04:54:37.478Z,98556.25
2023-05-14T04:57:05.713Z,98550.48
2023-05-14T04:59:33.723Z,98557.64
2023-05-14T05:02:01.791Z,98561.00
2023-05-14T05:04:30.115Z,98558.33
2023-05-14T05:06:58.785Z,98551.88
2023-05-14T05:09:26.697Z,98548.30
2023-05-14T05:11:55.590Z,98551.75
2023-05-14T05:14:23.573Z,98551.96
2023-05-14T05:16:51.498Z,98549.19
2023-05-14T05:19:22.418Z,98545.02
2023-05-14T05:21:54.636Z,98546.94
2023-05-14T05:24:22.635Z,98542.32
2023-05-14T05:26:52.018Z,98540.90
2023-05-14T05:29:19.964Z,98540.45
2023-05-14T05:31:48.457Z,98537.55
2023-05-14T05:34:16.568Z,98536.75
2023-05-14T05:36:44.478Z,98536.20
2023-05-14T05:39:12.491Z,98537.95
2023-05-14T05:41:40.995Z,98535.34
2023-05-14T05:44:09.074Z,98535.84
2023-05-14T05:46:37.688Z,98534.88
2023-05-14T05:49:05.781Z,98533.77
2023-05-14T05:51:33.686Z,98537.98
2023-05-14T05:54:01.581Z,98541.27
2023-05-14T05:56:30.837Z,98541.97
2023-05-14T05:58:58.790Z,98549.02
2023-05-14T06:01:26.881Z,98551.96
2023-05-14T06:03:54.874Z,98558.77
2023-05-14T06:06:22.793Z,98562.85
2023-05-14T06:08:50.881Z,98565.04
2023-05-14T06:11:18.937Z,98567.26
2023-05-14T06:13:47.018Z,98563.09
2023-05-14T06:16:14.991Z,98565.92
2023-05-14T06:18:42.925Z,98564.98
2023-05-14T06:21:10.808Z,98570.40
2023-05-14T06:23:38.796Z,98574.79
2023-05-14T06:26:06.892Z,98583.38
2023-05-14T06:28:34.844Z,98589.88
2023-05-14T06:31:02.756Z,98589.10
2023-05-14T06:33:31.455Z,98585.39
2023-05-14T06:36:00.221Z,98584.45
2023-05-14T06:38:28.377Z,98584.13
2023-05-14T06:40:56.587Z,98589.98
2023-05-14T06:43:24.804Z,98594.40
2023-05-14T06:45:53.054Z,98594.71
2023-05-14T06:48:21.196Z,98601.37
2023-05-14T06:50:49.338Z,98600.95
2023-05-14T06:53:17.644Z,98600.57
2023-05-14T06:55:47.611Z,98603.66
2023-05-14T06:58:15.571Z,98603.13
2023-05-14T07:00:43.941Z,98600.08
2023-05-14T07:03:11.905Z,98604.60
2023-05-14T07:05:41.238Z,98606.77
2023-05-14T07:08:09.211Z,98604.13
2023-05-14T07:10:37.622Z,98598.36
2023-05-14T07:13:06.063Z,98590.61
2023-05-14T07:15:34.368Z,98593.52
2023-05-14T07:18:02.482Z,98593.36
2023-05-14T07:20:30.555Z,98592.58
2023-05-14T07:22:58.977Z,98597.23
2023-05-14T07:25:27.452Z,98595.36
2023-05-14T07:27:55.971Z,98597.30
2023-05-14T07:30:24.271Z,98595.36
2023-05-14T07:32:53.081Z,98598.02
2023-05-14T07:35:21.018Z,98594.36
2023-05-14T07:37:49.057Z,98587.80
2023-05-14T07:40:17.047Z,98585.08
2023-05-14T07:42:45.089Z,98584.01
2023-05-14T07:45:13.117Z,98584.83
2023-05-14T07:47:41.293Z,98586.23
2023-05-14T07:50:09.761Z,98584.56
2023-05-14T07:52:37.932Z,98582.75
2023-05-14T07:55:06.930Z,98582.10
2023-05-14T07:57:34.977Z,98581.27
2023-05-14T08:00:04.116Z,98584.19
2023-05-14T08:02:40.422Z,98583.16
2023-05-14T08:05:09.601Z,98578.59
2023-05-14T08:07:38.550Z,98577.95
2023-05-14T08:10:07.874Z,98575.30
2023-05-14T08:12:36.383Z,98577.55
2023-05-14T08:15:05.752Z,98575.66
2023-05-14T08:17:34.027Z,98575.27
2023-05-14T08:20:03.220Z,98570.52
2023-05-14T08:22:31.217Z,98569.69
2023-05-14T08:25:00.992Z,98568.48
2023-05-14T08:27:28.872Z,98567.34
2023-05-14T08:29:57.101Z,98567.77
2023-05-14T08:32:25.190Z,98564.66
2023-05-14T08:34:53.247Z,98571.29
2023-05-14T08:37:21.710Z,98566.59
2023-05-14T08:39:49.702Z,98563.09
2023-05-14T08:42:19.994Z,98563.50
2023-05-14T08:44:50.265Z,98565.59
2023-05-14T08:47:18.936Z,98569.05
2023-05-14T08:49:47.438Z,98567.33
2023-05-14T08:52:16.539Z,98567.02
2023-05-14T08:54:45.664Z,98574.72
2023-05-14T08:57:14.202Z,98570.85
2023-05-14T08:59:42.190Z,98568.79
2023-05-14T09:02:10.154Z,98567.19
2023-05-14T09:04:38.343Z,98562.77
2023-05-14T09:07:07.600Z,98560.31
2023-05-14T09:09:35.562Z,98555.99
2023-05-14T09:12:03.962Z,98553.36
2023-05-14T09:14:33.235Z,98550.64
2023-05-14T09:17:01.183Z,98555.61
2023-05-14T09:19:31.062Z,98551.62
2023-05-14T09:21:59.343Z,98545.98
2023-05-14T09:24:29.375Z,98541.55
2023-05-14T09:26:58.002Z,98536.04
2023-05-14T09:29:26.689Z,98530.60
2023-05-14T09:31:55.567Z,98530.89
2023-05-14T09:34:33.352Z,98527.89
2023-05-14T09:37:02.902Z,98529.04
2023-05-14T09:39:31.110Z,98529.64
2023-05-14T09:41:59.167Z,98528.79
2023-05-14T09:44:27.485Z,98532.44
2023-05-14T09:46:55.790Z,98530.09
2023-05-14T09:49:24.028Z,98529.73
2023-05-14T09:51:52.391Z,98526.39
2023-05-14T09:54:20.496Z,98531.57
2023-05-14T09:56:48.492Z,98525.15
2023-05-14T09:59:16.499Z,98521.48
2023-05-14T10:01:44.925Z,98523.63
2023-05-14T10:04:13.017Z,98520.90
2023-05-14T10:06:42.561Z,98516.05
2023-05-14T10:09:13.092Z,98515.28
2023-05-14T10:11:43.227Z,98514.59
2023-05-14T10:14:18.627Z,98515.36
2023-05-14T10:16:50.999Z,98512.52
2023-05-14T10:19:21.160Z,98518.61
2023-05-14T10:21:58.439Z,98520.22
2023-05-14T10:24:26.498Z,98517.62
2023-05-14T10:26:55.920Z,98512.80
2023-05-14T10:29:34.898Z,98511.48
2023-05-14T10:32:07.207Z,98512.55
2023-05-14T10:34:45.981Z,98512.67
2023-05-14T10:37:15.086Z,98509.39
2023-05-14T10:39:43.585Z,98506.30
2023-05-14T10:42:13.338Z,98504.79
2023-05-14T10:44:46.261Z,98507.91
2023-05-14T10:47:15.957Z,98506.83
2023-05-14T10:49:45.400Z,98503.54
2023-05-14T10:52:13.478Z,98493.38
2023-05-14T10:54:41.446Z,98487.34
2023-05-14T10:57:12.829Z,98479.52
2023-05-14T10:59:42.313Z,98472.93
2023-05-14T11:02:24.671Z,98469.55
2023-05-14T11:05:02.880Z,98466.80
2023-05-14T11:07:38.413Z,98459.98
2023-05-14T11:10:06.906Z,98457.91
2023-05-14T11:12:36.533Z,98453.23
2023-05-14T11:15:11.884Z,98440.48
2023-05-14T11:17:41.060Z,98438.64
2023-05-14T11:20:09.895Z,98435.30
2023-05-14T11:22:38.597Z,98432.64
2023-05-14T11:25:07.387Z,98437.11
2023-05-14T11:27:36.731Z,98435.84
2023-05-14T11:30:05.093Z,98427.83
2023-05-14T11:32:33.272Z,98427.05
2023-05-14T11:35:01.291Z,98420.14
2023-05-14T11:37:30.850Z,98420.39
2023-05-14T11:40:00.087Z,98416.48
2023-05-14T11:42:28.224Z,98416.94
2023-05-14T11:44:56.771Z,98419.05
2023-05-14T11:47:24.797Z,98417.52
2023-05-14T11:49:52.972Z,98409.23
2023-05-14T11:52:22.131Z,98398.09
2023-05-14T11:54:50.985Z,98399.73
2023-05-14T11:57:21.059Z,98400.07
2023-05-14T11:59:49.823Z,98397.55
2023-05-14T12:02:18.814Z,98392.59
2023-05-14T12:04:50.676Z,98391.68
2023-05-14T12:07:18.870Z,98383.54
2023-05-14T12:09:51.069Z,98370.50
2023-05-14T12:12:22.722Z,98365.27
2023-05-14T12:14:51.154Z,98365.61
2023-05-14T12:17:23.266Z,98366.22
2023-05-14T12:19:52.284Z,98363.79
2023-05-14T12:22:22.294Z,98355.94
2023-05-14T12:24:57.787Z,98342.73
2023-05-14T12:27:26.843Z,98331.92
2023-05-14T12:30:16.857Z,98335.79
2023-05-14T12:32:51.752Z,98341.34
2023-05-14T12:35:21.099Z,98341.95
2023-05-14T12:37:49.086Z,98336.30
2023-05-14T12:40:17.204Z,98333.81
2023-05-14T12:42:45.205Z,98331.44
2023-05-14T12:45:13.193Z,98325.83
2023-05-14T12:47:41.146Z,98329.95
2023-05-14T12:50:09.593Z,98333.34
2023-05-14T12:52:39.788Z,98329.08
2023-05-14T12:55:09.360Z,98335.11
2023-05-14T12:57:39.289Z,98335.95
2023-05-14T13:00:12.225Z,98336.56
2023-05-14T13:02:49.617Z,98330.67
2023-05-14T13:05:17.729Z,98324.05
2023-05-14T13:07:45.687Z,98318.44
2023-05-14T13:10:13.959Z,98314.94
2023-05-14T13:12:42.292Z,98310.33
2023-05-14T13:15:11.002Z,98303.02
2023-05-14T13:17:41.479Z,98302.71
2023-05-14T13:20:09.903Z,98302.02
2023-05-14T13:22:38.034Z,98297.29
2023-05-14T13:25:07.547Z,98297.90
2023-05-14T13:27:36.215Z,98307.41
2023-05-14T13:30:04.552Z,98313.00
2023-05-14T13:32:32.945Z,98313.37
2023-05-14T13:35:01.030Z,98310.52
2023-05-14T13:37:29.235Z,98308.23
2023-05-14T13:39:57.245Z,98291.36
2023-05-14T13:42:25.294Z,98279.40
2023-05-14T13:44:53.197Z,98265.27
2023-05-14T13:47:21.554Z,98255.19
2023-05-14T13:49:49.504Z,98237.67
2023-05-14T13:52:17.634Z,98233.35
2023-05-14T13:54:46.355Z,98234.79
2023-05-14T13:57:15.008Z,98237.84
2023-05-14T13:59:43.073Z,98246.63
2023-05-14T14:02:11.091Z,98248.35
2023-05-14T14:04:39.237Z,98245.11
2023-05-14T14:07:07.252Z,98251.90
2023-05-14T14:09:36.942Z,98260.11
2023-05-14T14:12:05.449Z,98264.67
2023-05-14T14:14:33.420Z,98270.27
2023-05-14T14:17:01.416Z,98258.59
2023-05-14T14:19:29.315Z,98255.80
2023-05-14T14:21:57.306Z,98251.98
2023-05-14T14:24:25.223Z,98245.56
2023-05-14T14:26:53.431Z,98237.78
2023-05-14T14:29:24.180Z,98232.52
2023-05-14T14:31:52.583Z,98222.20
2023-05-14T14:34:21.130Z,98210.35
2023-05-14T14:36:49.364Z,98199.77
2023-05-14T14:39:17.598Z,98187.67
2023-05-14T14:41:45.910Z,98187.59
2023-05-14T14:44:14.119Z,98190.34
2023-05-14T14:46:42.998Z,98186.48
2023-05-14T14:49:11.011Z,98180.23
2023-05-14T14:51:39.423Z,98173.30
2023-05-14T14:54:07.388Z,98173.09
2023-05-14T14:56:35.312Z,98173.83
2023-05-14T14:59:04.188Z,98173.29
2023-05-14T15:01:32.233Z,98167.82
2023-05-14T15:04:00.258Z,98169.30
2023-05-14T15:06:28.258Z,98167.52
2023-05-14T15:08:56.359Z,98175.98
2023-05-14T15:11:24.245Z,98182.11
2023-05-14T15:13:52.212Z,98181.25
2023-05-14T15:16:20.125Z,98177.64
2023-05-14T15:18:48.225Z,98180.47
2023-05-14T15:21:16.103Z,98191.73
2023-05-14T15:23:44.295Z,98184.54
2023-05-14T15:26:12.354Z,98182.08
2023-05-14T15:28:40.415Z,98183.85
2023-05-14T15:31:08.385Z,98189.67
2023-05-14T15:33:36.394Z,98193.23
2023-05-14T15:36:04.642Z,98189.52
2023-05-14T15:38:32.720Z,98180.81
2023-05-14T15:41:00.652Z,98174.10
2023-05-14T15:43:28.578Z,98181.83
2023-05-14T15:45:56.861Z,98183.61
2023-05-14T15:48:24.993Z,98183.06
2023-05-14T15:50:53.324Z,98181.50
2023-05-14T15:53:21.538Z,98188.33
2023-05-14T15:55:49.775Z,98196.87
2023-05-14T15:58:17.745Z,98198.39
2023-05-14T16:00:45.852Z,98200.97
2023-05-14T16:03:13.825Z,98199.05
2023-05-14T16:05:42.878Z,98188.07
2023-05-14T16:08:11.185Z,98191.98
2023-05-14T16:10:39.197Z,98192.30
2023-05-14T16:13:07.498Z,98193.25
2023-05-14T16:15:35.713Z,98189.15
2023-05-14T16:18:04.093Z,98185.44
2023-05-14T16:20:32.329Z,98190.50
2023-05-14T16:23:00.667Z,98185.07
2023-05-14T16:25:30.208Z,98174.55
2023-05-14T16:27:58.239Z,98169.95
2023-05-14T16:30:26.628Z,98175.42
2023-05-14T16:32:54.707Z,98177.92
2023-05-14T16:35:22.694Z,98173.84
2023-05-14T16:37:51.031Z,98176.15
2023-05-14T16:40:19.756Z,98180.02
2023-05-14T16:42:49.291Z,98179.15
2023-05-14T16:45:18.114Z,98176.86
2023-05-14T16:47:46.200Z,98173.02
2023-05-14T16:50:14.456Z,98173.60
2023-05-14T16:52:43.405Z,98175.94
2023-05-14T16:55:11.537Z,98175.11
2023-05-14T16:57:39.882Z,98173.73
2023-05-14T17:00:09.582Z,98168.95
2023-05-14T17:02:37.718Z,98163.11
2023-05-14T17:05:06.278Z,98163.03
2023-05-14T17:07:34.219Z,98158.76
2023-05-14T17:10:02.252Z,98151.89
2023-05-14T17:12:30.442Z,98147.66
2023-05-14T17:14:58.552Z,98145.52
2023-05-14T17:17:26.461Z,98149.63
2023-05-14T17:19:54.409Z,98147.34
2023-05-14T17:22:22.449Z,98146.30
2023-05-14T17:24:50.565Z,98143.19
2023-05-14T17:27:18.546Z,98145.97
2023-05-14T17:29:46.467Z,98149.35
2023-05-14T17:32:14.648Z,98148.73
2023-05-14T17:34:42.532Z,98151.20
2023-05-14T17:37:10.466Z,98152.18
2023-05-14T17:39:38.493Z,98154.15
2023-05-14T17:42:07.013Z,98158.05
2023-05-14T17:44:36.494Z,98157.40
2023-05-14T17:47:04.860Z,98162.00
2023-05-14T17:49:32.886Z,98166.36
2023-05-14T17:52:00.924Z,98169.43
2023-05-14T17:54:29.115Z,98171.73
2023-05-14T17:56:57.022Z,98163.77
2023-05-14T17:59:24.946Z,98164.55
2023-05-14T18:01:52.966Z,98162.48
2023-05-14T18:04:20.923Z,98162.45
2023-05-14T18:06:48.893Z,98168.08
2023-05-14T18:09:17.016Z,98169.67
2023-05-14T18:11:45.032Z,98177.20
2023-05-14T18:14:13.140Z,98182.75
2023-05-14T18:16:41.085Z,98188.38
2023-05-14T18:19:09.364Z,98191.25
2023-05-14T18:21:37.401Z,98193.92
2023-05-14T18:24:05.742Z,98194.82
2023-05-14T18:26:34.477Z,98192.53
2023-05-14T18:29:02.481Z,98193.76
2023-05-14T18:31:30.592Z,98195.27
2023-05-14T18:33:58.653Z,98199.42
2023-05-14T18:36:26.692Z,98204.23
2023-05-14T18:38:54.666Z,98205.88
2023-05-14T18:41:22.793Z,98206.05
2023-05-14T18:43:51.052Z,98206.08
2023-05-14T18:46:19.189Z,98206.41
2023-05-14T18:48:47.126Z,98204.04
2023-05-14T18:51:15.293Z,98200.58
2023-05-14T18:53:43.264Z,98199.86
2023-05-14T18:56:11.342Z,98198.80
2023-05-14T18:58:39.362Z,98197.15
2023-05-14T19:01:07.370Z,98192.80
2023-05-14T19:03:35.852Z,98188.33
2023-05-14T19:06:04.034Z,98190.58
2023-05-14T19:08:31.923Z,98191.96
2023-05-14T19:11:00.215Z,98185.11
2023-05-14T19:13:28.749Z,98182.15
2023-05-14T19:15:56.695Z,98181.98
2023-05-14T19:18:24.703Z,98179.45
2023-05-14T19:20:53.077Z,98178.73
2023-05-14T19:23:21.210Z,98175.61
2023-05-14T19:25:49.416Z,98176.25
2023-05-14T19:28:19.883Z,98175.20
2023-05-14T19:30:47.987Z,98169.75
2023-05-14T19:33:16.063Z,98167.29
2023-05-14T19:35:44.054Z,98170.57
2023-05-14T19:38:12.406Z,98166.86
2023-05-14T19:40:43.037Z,98163.30
2023-05-14T19:43:11.979Z,98167.94
2023-05-14T19:45:42.834Z,98165.48
2023-05-14T19:48:12.684Z,98168.84
2023-05-14T19:50:41.731Z,98165.77
2023-05-14T19:53:10.041Z,98166.66
2023-05-14T19:55:37.953Z,98168.55
2023-05-14T19:58:06.131Z,98169.30
2023-05-14T20:00:34.448Z,98165.56
2023-05-14T20:03:03.383Z,98159.84
2023-05-14T20:05:34.324Z,98168.67
2023-05-14T20:08:03.891Z,98166.46
2023-05-14T20:10:31.962Z,98167.70
2023-05-14T20:12:59.861Z,98156.44
2023-05-14T20:15:28.188Z,98148.54
2023-05-14T20:17:56.296Z,98143.70
2023-05-14T20:20:24.615Z,98135.81
2023-05-14T20:22:53.658Z,98134.54
2023-05-14T20:25:21.929Z,98133.92
2023-05-14T20:27:49.879Z,98129.15
2023-05-14T20:30:17.990Z,98126.61
2023-05-14T20:32:46.474Z,98129.52
2023-05-14T20:35:14.447Z,98133.30
2023-05-14T20:37:42.430Z,98138.55
2023-05-14T20:40:12.774Z,98146.44
2023-05-14T20:42:40.943Z,98152.15
2023-05-14T20:45:09.332Z,98142.83
2023-05-14T20:47:37.874Z,98134.11
2023-05-14T20:50:07.121Z,98128.86
2023-05-14T20:52:35.264Z,98124.91
2023-05-14T20:55:03.726Z,98126.80
2023-05-14T20:57:32.045Z,98115.80
2023-05-14T20:59:59.944Z,98109.88
2023-05-14T21:02:27.948Z,98101.99
2023-05-14T21:04:56.116Z,98099.36
2023-05-14T21:07:24.145Z,98096.95
2023-05-14T21:09:52.727Z,98097.98
2023-05-14T21:12:20.824Z,98105.56
2023-05-14T21:14:48.847Z,98109.30
2023-05-14T21:17:16.868Z,98107.66
2023-05-14T21:19:44.817Z,98102.28
2023-05-14T21:22:12.866Z,98096.66
2023-05-14T21:24:41.486Z,98095.88
2023-05-14T21:27:09.536Z,98088.88
2023-05-14T21:29:37.623Z,98074.67
2023-05-14T21:32:06.179Z,98065.39
2023-05-14T21:34:34.111Z,98060.25
2023-05-14T21:37:02.150Z,98059.93
2023-05-14T21:39:30.069Z,98056.30
2023-05-14T21:41:58.241Z,98050.48
2023-05-14T21:44:26.140Z,98046.16
2023-05-14T21:46:54.070Z,98037.65
2023-05-14T21:49:22.026Z,98032.23
2023-05-14T21:51:54.335Z,98031.83
2023-05-14T21:54:22.285Z,98033.30
2023-05-14T21:56:50.269Z,98033.63
2023-05-14T21:59:18.236Z,98032.02
2023-05-14T22:02:05.530Z,98027.13
2023-05-14T22:04:35.374Z,98016.94
2023-05-14T22:07:03.678Z,98018.30
2023-05-14T22:09:31.652Z,98017.34
2023-05-14T22:11:59.734Z,98005.73
2023-05-14T22:14:28.155Z,98002.85
2023-05-14T22:16:56.881Z,98005.07
2023-05-14T22:19:26.808Z,97997.89
2023-05-14T22:21:54.751Z,97997.09
2023-05-14T22:24:23.090Z,97992.95
2023-05-14T22:26:51.811Z,97989.21
2023-05-14T22:29:19.777Z,97991.02
2023-05-14T22:31:47.819Z,97991.48
2023-05-14T22:34:16.202Z,97990.44
2023-05-14T22:36:44.328Z,97992.75
2023-05-14T22:39:13.496Z,98000.21
2023-05-14T22:41:41.731Z,98002.11
2023-05-14T22:44:09.818Z,98003.50
2023-05-14T22:46:38.214Z,98001.23
2023-05-14T22:49:06.639Z,97999.77
2023-05-14T22:51:34.630Z,97997.88
2023-05-14T22:54:02.691Z,97998.40
2023-05-14T22:56:30.935Z,98002.77
2023-05-14T22:59:00.425Z,97996.60
2023-05-14T23:01:28.977Z,97992.70
2023-05-14T23:03:57.448Z,97989.13
2023-05-14T23:06:25.748Z,97984.95
2023-05-14T23:08:53.983Z,97985.42
2023-05-14T23:11:22.351Z,97985.84
2023-05-14T23:13:50.768Z,97985.80
2023-05-14T23:16:18.727Z,97988.39
2023-05-14T23:18:46.855Z,97991.52
2023-05-14T23:21:15.189Z,97987.00
2023-05-14T23:23:43.405Z,97980.99
2023-05-14T23:26:11.440Z,97979.19
2023-05-14T23:28:39.396Z,97973.44
2023-05-14T23:31:07.324Z,97968.92
2023-05-14T23:33:35.260Z,97970.36
2023-05-14T23:36:03.466Z,97969.49
2023-05-14T23:38:31.353Z,97968.46
2023-05-14T23:40:59.233Z,97968.14
2023-05-14T23:43:27.125Z,97962.77
2023-05-14T23:45:55.122Z,97946.92
2023-05-14T23:48:23.052Z,97938.41
2023-05-14T23:50:51.801Z,97930.16
2023-05-14T23:53:19.820Z,97925.05
2023-05-14T23:55:48.091Z,97920.77
2023-05-14T23:58:16.009Z,97928.80
